Time;durP1;ratioP1;P1;durP2;ratioP2;P2;SDS_P1;SDS_P2;PMS_P1;PMS_P2;Temp;Humidity;BMP_temperature;BMP_pressure;BME280_temperature;BME280_humidity;BME280_pressure;Samples;Min_cycle;Max_cycle;Signal;HPM_P1;HPM_P2
2023/03/09 00:01:38;;;;;;;19.88;10.35;;;1.60;94.70;;;;;;5058735;28;20052;-84
2023/03/09 00:04:04;;;;;;;20.52;11.25;;;1.60;97.10;;;;;;5074302;28;20044;-85
2023/03/09 00:06:30;;;;;;;19.80;10.88;;;1.60;99.90;;;;;;5053708;28;20374;-83
2023/03/09 00:08:56;;;;;;;19.45;10.98;;;1.60;97.30;;;;;;5063689;28;20136;-84
2023/03/09 00:11:21;;;;;;;20.98;10.30;;;1.60;93.60;;;;;;5070966;28;20049;-84
2023/03/09 00:13:48;;;;;;;21.08;11.77;;;1.60;99.90;;;;;;5034228;28;20059;-84
2023/03/09 00:16:23;;;;;;;23.23;11.40;;;1.50;99.80;;;;;;5068179;28;20049;-84
2023/03/09 00:18:51;;;;;;;20.17;10.40;;;1.50;99.90;;;;;;5072233;28;20566;-85
2023/03/09 00:21:34;;;;;;;20.45;10.30;;;1.50;99.90;;;;;;5061127;28;20044;-84
2023/03/09 00:24:09;;;;;;;20.77;11.25;;;1.50;99.90;;;;;;5041836;28;20083;-83
2023/03/09 00:26:38;;;;;;;21.88;11.02;;;1.50;99.90;;;;;;5058952;28;20109;-84
2023/03/09 00:29:05;;;;;;;19.88;10.15;;;1.50;99.90;;;;;;5078132;28;20105;-84
2023/03/09 00:31:31;;;;;;;23.15;11.93;;;1.40;99.90;;;;;;5047812;28;20073;-84
2023/03/09 00:33:57;;;;;;;20.63;10.18;;;1.40;99.90;;;;;;5062666;28;20055;-83
2023/03/09 00:36:24;;;;;;;20.23;11.23;;;1.50;99.90;;;;;;5056532;28;20044;-84
2023/03/09 00:38:54;;;;;;;20.05;11.63;;;1.40;99.90;;;;;;5043325;28;20052;-84
2023/03/09 00:41:21;;;;;;;23.33;12.27;;;1.40;99.90;;;;;;5041018;28;20063;-84
2023/03/09 00:43:47;;;;;;;22.45;12.30;;;1.40;99.90;;;;;;5053982;28;20630;-85
2023/03/09 00:46:13;;;;;;;21.90;11.82;;;1.40;99.90;;;;;;5060734;28;20051;-84
2023/03/09 00:48:39;;;;;;;21.17;11.50;;;1.40;99.90;;;;;;5066803;28;20036;-85
2023/03/09 00:51:06;;;;;;;20.38;11.00;;;1.40;99.90;;;;;;5051662;28;20068;-84
2023/03/09 00:53:32;;;;;;;21.30;12.13;;;1.40;99.90;;;;;;5050138;28;20556;-84
2023/03/09 00:56:05;;;;;;;23.10;11.38;;;1.40;99.90;;;;;;5062561;28;20269;-84
2023/03/09 00:58:31;;;;;;;23.75;11.88;;;1.40;99.90;;;;;;5063754;28;20099;-84
2023/03/09 01:00:57;;;;;;;25.48;12.35;;;1.40;99.90;;;;;;5078504;28;20076;-84
2023/03/09 01:03:23;;;;;;;21.38;11.20;;;1.30;99.90;;;;;;5075834;28;20052;-84
2023/03/09 01:05:49;;;;;;;25.17;12.38;;;1.30;99.90;;;;;;5066077;28;20119;-84
2023/03/09 01:08:15;;;;;;;23.33;11.10;;;1.40;99.90;;;;;;5076659;28;20075;-85
2023/03/09 01:10:42;;;;;;;24.85;11.55;;;1.30;99.90;;;;;;5051665;28;20175;-84
2023/03/09 01:13:10;;;;;;;23.27;11.95;;;1.40;99.90;;;;;;5053542;28;20049;-84
2023/03/09 01:15:36;;;;;;;23.27;11.02;;;1.30;99.90;;;;;;5049962;28;20090;-85
2023/03/09 01:18:02;;;;;;;22.92;11.27;;;1.20;99.90;;;;;;5065641;28;20041;-84
2023/03/09 01:20:28;;;;;;;21.35;10.70;;;1.30;99.90;;;;;;5061704;28;20122;-84
2023/03/09 01:22:54;;;;;;;25.02;11.55;;;1.20;99.90;;;;;;5053337;28;20056;-85
2023/03/09 01:25:19;;;;;;;22.10;11.35;;;1.30;99.90;;;;;;5017394;28;20053;-85
2023/03/09 01:27:45;;;;;;;21.33;10.98;;;1.30;99.90;;;;;;5065214;28;20048;-85
2023/03/09 01:30:11;;;;;;;20.63;10.57;;;1.20;99.90;;;;;;5067825;28;20045;-84
2023/03/09 01:32:38;;;;;;;24.25;11.05;;;1.10;99.90;;;;;;5054281;28;20040;-85
2023/03/09 01:35:05;;;;;;;22.67;10.52;;;1.10;99.90;;;;;;5057550;28;20493;-84
2023/03/09 01:37:30;;;;;;;20.70;11.02;;;1.10;99.90;;;;;;5064924;28;20127;-85
2023/03/09 01:39:56;;;;;;;21.13;11.00;;;1.10;99.90;;;;;;5075022;28;20131;-84
2023/03/09 01:42:22;;;;;;;21.52;10.32;;;1.10;99.90;;;;;;5068567;28;20424;-84
2023/03/09 01:45:19;;;;;;;20.10;10.68;;;1.10;99.90;;;;;;5034833;28;20112;-84
2023/03/09 01:47:46;;;;;;;21.48;11.32;;;1.10;99.90;;;;;;5052092;28;20327;-84
2023/03/09 01:50:14;;;;;;;19.55;9.77;;;1.10;99.90;;;;;;5054527;28;20055;-84
2023/03/09 01:52:42;;;;;;;22.80;10.82;;;1.10;99.90;;;;;;5068430;28;20087;-84
2023/03/09 01:55:25;;;;;;;18.55;10.10;;;1.10;99.90;;;;;;5051035;28;20052;-84
2023/03/09 01:58:23;;;;;;;21.80;10.82;;;1.10;99.90;;;;;;5065732;28;20390;-84
2023/03/09 02:00:53;;;;;;;20.38;10.43;;;1.10;99.90;;;;;;5051801;28;20060;-84
2023/03/09 02:03:24;;;;;;;20.70;10.65;;;1.10;99.90;;;;;;5048579;28;20056;-85
2023/03/09 02:05:50;;;;;;;20.98;11.02;;;1.10;99.90;;;;;;5045671;28;20097;-84
2023/03/09 02:08:17;;;;;;;21.67;10.27;;;1.10;99.90;;;;;;5069269;28;20052;-84
2023/03/09 02:10:48;;;;;;;22.15;10.80;;;1.00;99.90;;;;;;5037315;28;20057;-85
2023/03/09 02:13:18;;;;;;;20.17;10.52;;;1.00;99.90;;;;;;5075796;28;20475;-84
2023/03/09 02:15:44;;;;;;;17.73;9.43;;;0.90;99.90;;;;;;5055466;28;20137;-84
2023/03/09 02:18:11;;;;;;;19.50;9.20;;;0.90;99.90;;;;;;5053404;28;20080;-84
2023/03/09 02:20:42;;;;;;;18.45;9.70;;;0.90;99.90;;;;;;5060224;28;20107;-84
2023/03/09 02:23:19;;;;;;;17.70;9.70;;;0.80;99.90;;;;;;5063278;28;20067;-83
2023/03/09 02:26:08;;;;;;;18.42;9.80;;;0.90;99.90;;;;;;5066419;28;20864;-84
2023/03/09 02:28:34;;;;;;;16.75;8.82;;;0.90;99.90;;;;;;5067256;28;20131;-84
2023/03/09 02:31:01;;;;;;;16.33;7.72;;;0.90;99.90;;;;;;5076475;28;20127;-83
2023/03/09 02:33:28;;;;;;;19.38;8.73;;;0.90;99.90;;;;;;5068753;28;20052;-85
2023/03/09 02:35:56;;;;;;;17.77;8.95;;;0.90;99.90;;;;;;5055825;28;20044;-83
2023/03/09 02:38:22;;;;;;;16.50;9.00;;;0.90;99.90;;;;;;5059441;28;20041;-85
2023/03/09 02:40:48;;;;;;;19.73;8.90;;;0.90;99.90;;;;;;5081075;28;20542;-84
2023/03/09 02:43:17;;;;;;;14.02;8.15;;;0.90;99.90;;;;;;5043631;28;20048;-84
2023/03/09 02:45:43;;;;;;;16.38;8.82;;;0.90;99.90;;;;;;5065995;28;21322;-84
2023/03/09 02:48:08;;;;;;;17.98;8.65;;;0.90;99.90;;;;;;5058192;28;20044;-84
2023/03/09 02:50:34;;;;;;;19.63;9.30;;;0.80;99.90;;;;;;5068238;28;20129;-84
2023/03/09 02:53:00;;;;;;;16.13;7.60;;;0.80;99.90;;;;;;5084201;28;20036;-83
2023/03/09 02:55:26;;;;;;;16.77;8.10;;;0.90;99.90;;;;;;5066203;28;20041;-84
2023/03/09 02:57:52;;;;;;;16.10;7.63;;;0.80;99.90;;;;;;5067811;28;20067;-83
2023/03/09 03:00:21;;;;;;;16.80;9.00;;;0.80;99.90;;;;;;5052169;28;20723;-84
2023/03/09 03:02:47;;;;;;;16.42;8.20;;;0.80;99.90;;;;;;5049925;28;20479;-83
2023/03/09 03:05:13;;;;;;;16.10;8.63;;;0.80;99.90;;;;;;5058996;28;20641;-84
2023/03/09 03:07:38;;;;;;;15.80;8.88;;;0.90;99.90;;;;;;5048782;28;20049;-84
2023/03/09 03:10:05;;;;;;;18.63;9.50;;;0.80;99.90;;;;;;5045633;28;20544;-83
2023/03/09 03:12:31;;;;;;;17.55;9.00;;;0.80;99.90;;;;;;5069308;28;20053;-85
2023/03/09 03:14:57;;;;;;;18.27;9.18;;;0.80;99.90;;;;;;5046970;28;20056;-84
2023/03/09 03:17:22;;;;;;;17.73;9.60;;;0.80;99.90;;;;;;5033754;28;20141;-84
2023/03/09 03:19:48;;;;;;;17.23;9.60;;;0.80;99.90;;;;;;5061607;28;20123;-84
2023/03/09 03:22:14;;;;;;;19.75;10.10;;;0.80;99.90;;;;;;5067164;28;20421;-84
2023/03/09 03:24:40;;;;;;;20.58;9.82;;;0.80;99.90;;;;;;5052981;28;20084;-84
2023/03/09 03:27:06;;;;;;;18.15;9.80;;;0.90;99.90;;;;;;5051300;28;20040;-84
2023/03/09 03:29:32;;;;;;;21.77;10.32;;;0.90;99.90;;;;;;5026822;28;20131;-85
2023/03/09 03:31:58;;;;;;;21.00;10.27;;;0.80;99.90;;;;;;5055328;28;20044;-83
2023/03/09 03:34:23;;;;;;;22.92;11.30;;;0.90;99.90;;;;;;5048715;28;20401;-84
2023/03/09 03:36:49;;;;;;;22.20;11.30;;;0.80;99.90;;;;;;5073319;28;20058;-83
2023/03/09 03:39:15;;;;;;;22.83;10.27;;;0.80;99.90;;;;;;5041924;28;20053;-84
2023/03/09 03:41:41;;;;;;;25.77;12.05;;;0.80;99.90;;;;;;5054846;28;20044;-84
2023/03/09 03:44:06;;;;;;;22.50;11.98;;;0.80;99.90;;;;;;5080826;28;20044;-83
2023/03/09 03:46:32;;;;;;;22.02;10.95;;;0.90;99.90;;;;;;5052884;28;20443;-84
2023/03/09 03:48:58;;;;;;;22.10;11.10;;;0.80;99.90;;;;;;5046779;28;20048;-84
2023/03/09 03:51:24;;;;;;;23.52;12.32;;;0.80;99.90;;;;;;5047395;28;20046;-84
2023/03/09 03:53:50;;;;;;;22.52;11.32;;;0.80;99.90;;;;;;5031714;28;20414;-84
2023/03/09 03:56:16;;;;;;;27.30;12.02;;;0.70;99.90;;;;;;5051914;28;20482;-84
2023/03/09 03:58:42;;;;;;;23.92;11.15;;;0.70;99.90;;;;;;5073365;28;20048;-84
2023/03/09 04:01:08;;;;;;;21.30;10.40;;;0.70;99.90;;;;;;5042928;28;20048;-83
2023/03/09 04:03:33;;;;;;;22.23;11.38;;;0.70;99.90;;;;;;5057541;28;20465;-84
2023/03/09 04:06:01;;;;;;;24.70;11.98;;;0.70;99.90;;;;;;5059774;28;20087;-84
2023/03/09 04:08:27;;;;;;;21.25;11.23;;;0.80;99.90;;;;;;5068953;28;20032;-85
2023/03/09 04:10:53;;;;;;;26.55;12.52;;;0.70;99.90;;;;;;5044224;28;20040;-84
2023/03/09 04:13:19;;;;;;;26.90;12.27;;;0.70;99.90;;;;;;5075404;28;20052;-84
2023/03/09 04:15:44;;;;;;;25.02;12.30;;;0.70;99.90;;;;;;5055327;28;20130;-85
2023/03/09 04:18:10;;;;;;;24.77;12.43;;;0.70;99.90;;;;;;5067524;28;20074;-84
2023/03/09 04:20:38;;;;;;;24.23;11.98;;;0.70;99.90;;;;;;5046949;28;20049;-84
2023/03/09 04:23:04;;;;;;;23.85;12.27;;;0.70;99.90;;;;;;5055680;28;20053;-84
2023/03/09 04:25:29;;;;;;;24.85;12.18;;;0.70;99.90;;;;;;5051055;28;20063;-84
2023/03/09 04:27:56;;;;;;;27.65;13.25;;;0.70;99.90;;;;;;5053333;28;20052;-84
2023/03/09 04:30:22;;;;;;;26.98;12.95;;;0.80;99.90;;;;;;5048916;28;20070;-84
2023/03/09 04:32:49;;;;;;;27.00;13.00;;;0.70;99.90;;;;;;5049796;28;20071;-84
2023/03/09 04:35:15;;;;;;;25.95;12.93;;;0.80;99.90;;;;;;5068669;28;20076;-84
2023/03/09 04:37:41;;;;;;;29.27;14.35;;;0.80;99.90;;;;;;5055492;28;20075;-85
2023/03/09 04:40:07;;;;;;;28.15;13.85;;;0.90;99.90;;;;;;5068270;28;20052;-85
2023/03/09 04:42:33;;;;;;;32.08;14.93;;;0.80;99.90;;;;;;5057533;28;20048;-84
2023/03/09 04:44:59;;;;;;;27.35;14.18;;;0.80;99.90;;;;;;5050360;28;20060;-84
2023/03/09 04:47:24;;;;;;;32.45;15.48;;;0.80;99.90;;;;;;5065626;28;20514;-84
2023/03/09 04:49:50;;;;;;;34.15;15.55;;;0.80;99.90;;;;;;5056739;28;20040;-84
2023/03/09 04:52:16;;;;;;;31.63;15.02;;;0.80;99.90;;;;;;5049724;28;20083;-84
2023/03/09 04:54:41;;;;;;;30.65;14.73;;;0.80;99.90;;;;;;5044777;28;20047;-85
2023/03/09 04:57:07;;;;;;;31.52;15.60;;;0.70;99.90;;;;;;5043091;28;20108;-85
2023/03/09 04:59:33;;;;;;;34.78;15.95;;;0.70;99.90;;;;;;5032203;28;20443;-84
2023/03/09 05:01:58;;;;;;;36.28;15.10;;;0.70;99.90;;;;;;5065226;28;20044;-84
2023/03/09 05:04:24;;;;;;;31.27;14.60;;;0.70;99.90;;;;;;5035348;28;20104;-83
2023/03/09 05:06:50;;;;;;;29.88;14.30;;;0.70;99.90;;;;;;5050326;28;20044;-83
2023/03/09 05:09:16;;;;;;;29.77;13.68;;;0.70;99.90;;;;;;5064437;28;20052;-84
2023/03/09 05:11:43;;;;;;;32.28;14.82;;;0.80;99.90;;;;;;5051569;28;20072;-84
2023/03/09 05:14:08;;;;;;;33.88;14.75;;;0.90;99.90;;;;;;5066826;28;20052;-84
2023/03/09 05:16:34;;;;;;;30.73;14.60;;;0.80;99.90;;;;;;5049705;28;20044;-84
2023/03/09 05:19:00;;;;;;;30.77;13.98;;;0.70;99.90;;;;;;5047992;28;20064;-84
2023/03/09 05:21:26;;;;;;;28.52;14.15;;;0.70;99.90;;;;;;5057041;28;20052;-85
2023/03/09 05:23:51;;;;;;;30.58;14.27;;;0.70;99.90;;;;;;5063918;28;20501;-85
2023/03/09 05:26:17;;;;;;;29.20;13.45;;;0.70;99.90;;;;;;5029806;28;20037;-84
2023/03/09 05:28:43;;;;;;;29.60;13.90;;;0.70;99.90;;;;;;5051951;28;20040;-83
2023/03/09 05:31:12;;;;;;;28.45;13.00;;;0.70;99.90;;;;;;5062142;28;20112;-83
2023/03/09 05:33:39;;;;;;;32.15;14.50;;;0.70;99.90;;;;;;5046056;28;20059;-84
2023/03/09 05:36:16;;;;;;;31.27;13.88;;;0.60;99.90;;;;;;5054609;28;20143;-84
2023/03/09 05:38:42;;;;;;;28.33;14.32;;;0.70;99.90;;;;;;5065409;28;20051;-84
2023/03/09 05:41:08;;;;;;;31.58;14.38;;;0.60;99.90;;;;;;5037547;28;20842;-83
2023/03/09 05:43:35;;;;;;;29.85;14.00;;;0.60;99.90;;;;;;5066312;28;20053;-84
2023/03/09 05:46:02;;;;;;;31.25;13.98;;;0.60;99.90;;;;;;5064544;28;20044;-84
2023/03/09 05:48:28;;;;;;;32.58;13.30;;;0.70;99.90;;;;;;5070348;28;20405;-84
2023/03/09 05:50:54;;;;;;;30.60;13.88;;;0.70;99.90;;;;;;5063596;28;20052;-83
2023/03/09 05:53:19;;;;;;;33.05;14.55;;;0.70;99.90;;;;;;5038579;28;20051;-84
2023/03/09 05:55:51;;;;;;;28.70;13.68;;;0.70;99.90;;;;;;5062098;28;20071;-83
2023/03/09 05:58:16;;;;;;;32.67;13.90;;;0.70;1.00;;;;;;5050599;28;20067;-83
2023/03/09 06:00:42;;;;;;;29.88;14.32;;;0.70;1.00;;;;;;5056807;28;20514;-84
2023/03/09 06:03:08;;;;;;;28.80;13.35;;;0.70;1.00;;;;;;5054549;28;20044;-83
2023/03/09 06:05:34;;;;;;;31.48;13.85;;;0.70;1.00;;;;;;5033477;28;20053;-84
2023/03/09 06:08:00;;;;;;;28.17;14.10;;;0.70;1.00;;;;;;5045801;28;20044;-83
2023/03/09 06:10:25;;;;;;;29.42;13.65;;;0.70;1.00;;;;;;5069580;28;20051;-84
2023/03/09 06:12:52;;;;;;;28.50;12.38;;;0.70;1.00;;;;;;5051343;28;20450;-84
2023/03/09 06:15:17;;;;;;;27.27;13.40;;;0.70;1.00;;;;;;5042663;28;20067;-83
2023/03/09 06:17:43;;;;;;;26.90;13.00;;;0.80;1.00;;;;;;5035722;28;20044;-85
2023/03/09 06:20:10;;;;;;;27.80;12.75;;;0.70;1.00;;;;;;5074756;28;20049;-86
2023/03/09 06:22:35;;;;;;;26.58;11.75;;;0.80;1.00;;;;;;5055442;28;20054;-84
2023/03/09 06:25:01;;;;;;;26.23;13.35;;;0.80;1.00;;;;;;5053422;28;20036;-84
2023/03/09 06:27:27;;;;;;;23.73;11.90;;;0.90;1.00;;;;;;5057452;28;20044;-83
2023/03/09 06:29:53;;;;;;;27.65;11.93;;;0.80;1.00;;;;;;5052009;28;20048;-83
2023/03/09 06:32:19;;;;;;;27.73;13.15;;;0.90;1.00;;;;;;5034658;28;20525;-82
2023/03/09 06:34:45;;;;;;;28.48;12.55;;;0.90;1.00;;;;;;5065525;28;20040;-83
2023/03/09 06:37:11;;;;;;;24.98;12.23;;;0.90;1.00;;;;;;5032254;28;20049;-82
2023/03/09 06:39:37;;;;;;;30.17;13.68;;;0.90;1.00;;;;;;5051328;28;20087;-84
2023/03/09 06:42:03;;;;;;;28.63;13.95;;;1.00;1.00;;;;;;5032960;28;20098;-82
2023/03/09 06:44:29;;;;;;;24.77;12.80;;;0.90;1.00;;;;;;5048307;28;20048;-84
2023/03/09 06:46:54;;;;;;;27.50;13.23;;;1.00;1.00;;;;;;5068125;28;20055;-83
2023/03/09 06:49:20;;;;;;;31.67;13.25;;;1.00;1.00;;;;;;5032823;28;20048;-82
2023/03/09 06:51:45;;;;;;;27.25;12.95;;;1.10;1.00;;;;;;5066574;28;20044;-83
2023/03/09 06:54:13;;;;;;;24.90;12.48;;;1.00;1.00;;;;;;5048405;28;20044;-82
2023/03/09 06:56:38;;;;;;;31.15;14.60;;;1.00;1.00;;;;;;5064152;28;20040;-84
2023/03/09 06:59:04;;;;;;;25.30;12.45;;;1.10;1.00;;;;;;5053392;28;20051;-83
2023/03/09 07:01:30;;;;;;;30.45;13.25;;;1.10;1.00;;;;;;5036030;28;20036;-82
2023/03/09 07:03:56;;;;;;;30.33;13.75;;;1.10;1.00;;;;;;5064726;28;20045;-83
2023/03/09 07:06:22;;;;;;;30.42;13.88;;;1.20;1.00;;;;;;5057683;28;20911;-82
2023/03/09 07:08:47;;;;;;;100.45;41.65;;;1.20;1.00;;;;;;5021430;28;20052;-83
2023/03/09 07:11:13;;;;;;;32.08;15.25;;;1.30;1.00;;;;;;5050251;28;20075;-83
2023/03/09 07:13:39;;;;;;;34.92;16.27;;;1.30;99.90;;;;;;5056746;28;21000;-83
2023/03/09 07:16:05;;;;;;;33.33;15.00;;;1.30;99.90;;;;;;5059710;28;20829;-86
2023/03/09 07:18:31;;;;;;;29.00;14.68;;;1.40;99.90;;;;;;5037826;28;20105;-85
2023/03/09 07:21:00;;;;;;;30.17;14.90;;;1.40;99.90;;;;;;5064897;28;20044;-84
2023/03/09 07:23:27;;;;;;;34.40;15.57;;;1.40;99.90;;;;;;5061989;28;20135;-85
2023/03/09 07:25:53;;;;;;;27.98;14.30;;;1.30;99.90;;;;;;5047691;28;20046;-83
2023/03/09 07:28:19;;;;;;;34.63;15.10;;;1.30;99.90;;;;;;5049379;28;20040;-82
2023/03/09 07:30:45;;;;;;;31.08;14.73;;;1.40;99.90;;;;;;5072287;28;20080;-84
2023/03/09 07:33:10;;;;;;;33.47;15.27;;;1.30;99.90;;;;;;5068532;28;20557;-83
2023/03/09 07:35:40;;;;;;;29.25;15.43;;;1.30;99.90;;;;;;5081009;28;20996;-83
2023/03/09 07:38:05;;;;;;;31.85;15.60;;;1.30;99.90;;;;;;5067769;28;20553;-86
2023/03/09 07:40:31;;;;;;;33.72;14.23;;;1.40;99.90;;;;;;5065663;28;20124;-83
2023/03/09 07:42:57;;;;;;;28.35;14.40;;;1.50;99.90;;;;;;5051465;28;20045;-83
2023/03/09 07:45:23;;;;;;;29.10;16.13;;;1.60;99.90;;;;;;5067910;28;20045;-83
2023/03/09 07:47:49;;;;;;;26.17;13.20;;;1.70;99.90;;;;;;5063940;28;20150;-83
2023/03/09 07:50:15;;;;;;;28.75;15.48;;;1.90;99.90;;;;;;5051901;28;20048;-84
2023/03/09 07:52:41;;;;;;;27.65;14.80;;;2.00;99.90;;;;;;5070528;28;20104;-84
2023/03/09 07:55:09;;;;;;;25.25;14.82;;;2.20;99.90;;;;;;5053879;28;20055;-85
2023/03/09 07:57:35;;;;;;;28.38;14.80;;;2.30;99.90;;;;;;5052281;28;20099;-85
2023/03/09 08:00:01;;;;;;;29.17;15.18;;;2.40;99.90;;;;;;5067639;28;20052;-86
2023/03/09 08:02:27;;;;;;;29.33;14.43;;;2.50;99.90;;;;;;5051701;28;20046;-85
2023/03/09 08:04:53;;;;;;;29.30;15.77;;;2.50;99.90;;;;;;5054005;28;20048;-84
2023/03/09 08:07:19;;;;;;;28.70;15.35;;;2.50;99.90;;;;;;5055880;28;20127;-85
2023/03/09 08:09:44;;;;;;;24.65;14.35;;;2.50;99.90;;;;;;5052043;28;20111;-84
2023/03/09 08:12:10;;;;;;;25.90;14.80;;;2.50;99.90;;;;;;5050527;28;20056;-85
2023/03/09 08:14:36;;;;;;;27.42;15.50;;;2.60;99.90;;;;;;5039036;28;20052;-85
2023/03/09 08:17:03;;;;;;;30.05;15.57;;;2.60;99.90;;;;;;5051995;28;20051;-85
2023/03/09 08:19:30;;;;;;;30.65;16.02;;;2.70;99.90;;;;;;5055810;28;20184;-85
2023/03/09 08:21:56;;;;;;;29.05;15.40;;;2.70;99.90;;;;;;5049479;28;20052;-85
2023/03/09 08:24:22;;;;;;;28.23;15.63;;;2.70;99.90;;;;;;5053664;28;20060;-86
2023/03/09 08:26:48;;;;;;;28.42;15.55;;;2.70;99.90;;;;;;5052394;28;20367;-84
2023/03/09 08:29:14;;;;;;;26.13;14.93;;;2.80;99.90;;;;;;5050393;28;20095;-85
2023/03/09 08:31:40;;;;;;;27.17;15.38;;;2.80;99.90;;;;;;5053956;28;20135;-84
2023/03/09 08:34:06;;;;;;;26.17;15.10;;;2.90;99.90;;;;;;5053406;28;20043;-84
2023/03/09 08:36:32;;;;;;;28.73;15.63;;;2.90;99.90;;;;;;5050083;28;20063;-84
2023/03/09 08:38:58;;;;;;;27.13;14.75;;;2.90;99.90;;;;;;5055130;28;21990;-86
2023/03/09 08:41:24;;;;;;;26.88;15.25;;;2.90;99.90;;;;;;5051234;28;20125;-84
2023/03/09 08:43:50;;;;;;;25.35;14.88;;;2.90;99.90;;;;;;5035343;28;20045;-86
2023/03/09 08:46:16;;;;;;;26.92;15.55;;;3.00;99.90;;;;;;5039520;28;20680;-85
2023/03/09 08:48:42;;;;;;;27.90;15.13;;;3.00;99.90;;;;;;5061439;28;20056;-85
2023/03/09 08:51:09;;;;;;;27.70;14.52;;;3.10;99.90;;;;;;5049766;28;20577;-85
2023/03/09 08:53:36;;;;;;;24.13;14.23;;;3.10;99.90;;;;;;5050504;28;20132;-84
2023/03/09 08:56:04;;;;;;;24.73;14.43;;;3.20;99.90;;;;;;5060026;28;20051;-85
2023/03/09 08:58:29;;;;;;;23.83;14.48;;;3.20;99.90;;;;;;5057732;28;20051;-85
2023/03/09 09:00:55;;;;;;;27.08;14.52;;;3.40;99.90;;;;;;5050955;28;20044;-86
2023/03/09 09:03:21;;;;;;;24.33;13.88;;;3.30;99.90;;;;;;5034917;28;20056;-84
2023/03/09 09:05:46;;;;;;;26.90;14.13;;;3.40;99.90;;;;;;5055142;28;20080;-85
2023/03/09 09:08:12;;;;;;;23.98;13.80;;;3.40;99.90;;;;;;5038189;28;20520;-84
2023/03/09 09:10:42;;;;;;;22.42;12.85;;;3.40;99.90;;;;;;5037121;28;20052;-84
2023/03/09 09:13:08;;;;;;;24.25;13.77;;;3.30;99.90;;;;;;5034990;28;20048;-86
2023/03/09 09:15:36;;;;;;;20.63;12.68;;;3.30;99.90;;;;;;5054082;28;20154;-85
2023/03/09 09:18:01;;;;;;;24.45;12.77;;;3.30;99.90;;;;;;5052350;28;20040;-85
2023/03/09 09:20:27;;;;;;;22.38;12.98;;;3.30;99.90;;;;;;5051491;28;20075;-84
2023/03/09 09:22:53;;;;;;;23.27;12.48;;;3.30;99.90;;;;;;5049854;28;20060;-84
2023/03/09 09:25:19;;;;;;;21.30;12.15;;;3.30;84.00;;;;;;5053379;28;20128;-85
2023/03/09 09:27:44;;;;;;;21.58;12.98;;;3.20;92.10;;;;;;5053877;28;20049;-84
2023/03/09 09:30:11;;;;;;;19.73;12.50;;;3.20;99.90;;;;;;5038338;28;20052;-84
2023/03/09 09:32:39;;;;;;;25.65;13.55;;;3.20;99.90;;;;;;5051235;28;20056;-86
2023/03/09 09:35:06;;;;;;;26.40;12.93;;;3.20;99.90;;;;;;5044393;28;20049;-86
2023/03/09 09:37:31;;;;;;;17.92;11.57;;;3.20;95.00;;;;;;5039588;28;20033;-87
2023/03/09 09:39:58;;;;;;;24.45;13.27;;;3.20;97.10;;;;;;5072159;28;20048;-84
2023/03/09 09:42:35;;;;;;;19.30;11.82;;;3.30;81.80;;;;;;5032090;28;20053;-84
2023/03/09 09:45:04;;;;;;;20.42;12.45;;;3.30;66.20;;;;;;5079427;28;20055;-85
2023/03/09 09:47:32;;;;;;;21.92;12.23;;;3.50;95.70;;;;;;5052914;28;20127;-85
2023/03/09 09:50:01;;;;;;;19.25;12.00;;;3.60;81.20;;;;;;5057307;28;20083;-85
2023/03/09 09:52:32;;;;;;;19.00;11.50;;;3.70;94.80;;;;;;5058055;28;20386;-85
2023/03/09 09:55:13;;;;;;;21.27;12.55;;;3.70;78.60;;;;;;5058956;28;20048;-86
2023/03/09 09:58:10;;;;;;;17.85;11.55;;;3.90;39.60;;;;;;5056332;28;20611;-84
2023/03/09 10:00:50;;;;;;;20.08;12.45;;;4.00;48.20;;;;;;5024942;28;20056;-85
2023/03/09 10:03:21;;;;;;;19.27;11.50;;;4.20;25.90;;;;;;5057899;28;20040;-85
2023/03/09 10:05:50;;;;;;;19.48;11.98;;;4.30;13.20;;;;;;5057144;28;20055;-84
2023/03/09 10:08:37;;;;;;;20.63;11.60;;;4.40;5.80;;;;;;5041350;28;20132;-85
2023/03/09 10:11:23;;;;;;;19.83;11.40;;;4.60;1.00;;;;;;5055155;28;20221;-85
2023/03/09 10:14:09;;;;;;;13.98;8.68;;;4.60;1.00;;;;;;5052108;28;20059;-85
2023/03/09 10:16:48;;;;;;;18.83;11.40;;;4.60;1.00;;;;;;5057324;28;20045;-85
2023/03/09 10:19:17;;;;;;;19.27;11.43;;;4.60;1.00;;;;;;5055189;28;20057;-85
2023/03/09 10:21:59;;;;;;;19.80;11.02;;;4.60;1.00;;;;;;5037313;28;20114;-85
2023/03/09 10:24:26;;;;;;;20.02;11.27;;;4.60;1.00;;;;;;5040075;28;20048;-86
2023/03/09 10:27:01;;;;;;;18.45;11.93;;;4.60;1.00;;;;;;5056166;28;21548;-85
2023/03/09 10:29:50;;;;;;;19.85;10.85;;;4.50;1.00;;;;;;5053023;28;20060;-85
2023/03/09 10:33:05;;;;;;;18.38;10.70;;;4.40;1.00;;;;;;5057747;28;20049;-85
2023/03/09 10:36:03;;;;;;;19.38;10.25;;;4.50;1.00;;;;;;5056160;28;20052;-85
2023/03/09 10:38:29;;;;;;;20.20;11.07;;;4.50;1.00;;;;;;5055723;28;20090;-87
2023/03/09 10:40:56;;;;;;;17.45;11.18;;;4.60;1.00;;;;;;5040669;28;20049;-86
2023/03/09 10:43:26;;;;;;;18.40;10.65;;;4.70;1.00;;;;;;5052781;28;20121;-85
2023/03/09 10:45:53;;;;;;;18.88;11.05;;;4.70;1.00;;;;;;5053947;28;21599;-85
2023/03/09 10:48:24;;;;;;;17.05;10.30;;;4.70;1.00;;;;;;5054172;28;20680;-85
2023/03/09 10:51:04;;;;;;;16.52;9.73;;;4.70;1.00;;;;;;5052978;28;20050;-85
2023/03/09 10:53:44;;;;;;;18.20;9.80;;;4.60;1.00;;;;;;5051993;28;20136;-85
2023/03/09 10:56:15;;;;;;;15.45;10.48;;;4.60;1.00;;;;;;5054745;28;20054;-85
2023/03/09 10:58:41;;;;;;;16.02;9.75;;;4.60;1.00;;;;;;5054735;28;20682;-84
2023/03/09 11:01:15;;;;;;;15.18;9.57;;;4.50;1.00;;;;;;5058080;28;20052;-86
2023/03/09 11:03:43;;;;;;;16.73;9.98;;;4.50;1.00;;;;;;5041969;28;20139;-87
2023/03/09 11:06:29;;;;;;;17.75;10.52;;;4.50;1.00;;;;;;5055427;28;20055;-87
2023/03/09 11:08:58;;;;;;;21.10;11.15;;;4.50;1.00;;;;;;5065445;28;20048;-87
2023/03/09 11:11:26;;;;;;;17.20;10.65;;;4.60;1.00;;;;;;5066599;28;20087;-88
2023/03/09 11:13:53;;;;;;;27.50;13.68;;;4.60;1.00;;;;;;5050493;28;20048;-87
2023/03/09 11:16:34;;;;;;;18.95;10.75;;;4.70;1.00;;;;;;5053116;28;20067;-88
2023/03/09 11:19:13;;;;;;;16.02;9.95;;;4.80;1.00;;;;;;5051351;28;20123;-88
2023/03/09 11:21:57;;;;;;;17.83;10.48;;;4.80;1.00;;;;;;5050989;28;20083;-87
2023/03/09 11:24:31;;;;;;;18.67;11.13;;;4.80;1.00;;;;;;5033807;28;20053;-87
2023/03/09 11:27:06;;;;;;;18.38;11.63;;;4.90;1.00;;;;;;5067091;28;20051;-86
2023/03/09 11:29:43;;;;;;;20.58;11.63;;;5.10;1.00;;;;;;5052782;28;20109;-86
2023/03/09 11:32:11;;;;;;;19.50;11.32;;;5.30;1.00;;;;;;5067093;28;20130;-88
2023/03/09 11:34:40;;;;;;;19.45;11.27;;;5.40;1.00;;;;;;5052229;28;20079;-87
2023/03/09 11:37:09;;;;;;;19.63;11.43;;;5.40;1.00;;;;;;5068936;28;20072;-88
2023/03/09 11:39:40;;;;;;;18.65;11.82;;;5.40;1.00;;;;;;5040108;28;20132;-88
2023/03/09 11:42:12;;;;;;;18.38;10.75;;;5.50;1.00;;;;;;5051267;28;20087;-88
2023/03/09 11:44:42;;;;;;;21.58;11.90;;;5.50;99.90;;;;;;5059956;28;20072;-85
2023/03/09 11:47:24;;;;;;;20.90;11.77;;;5.40;99.90;;;;;;5059410;28;20049;-88
2023/03/09 11:49:52;;;;;;;17.95;11.32;;;5.50;99.90;;;;;;5050852;28;20044;-88
2023/03/09 11:52:26;;;;;;;19.38;11.75;;;5.50;99.90;;;;;;5070696;28;20047;-88
2023/03/09 11:54:55;;;;;;;19.40;12.35;;;5.40;99.90;;;;;;5038682;28;20045;-88
2023/03/09 11:57:22;;;;;;;18.45;11.85;;;5.40;1.00;;;;;;5044052;28;20062;-86
2023/03/09 12:00:06;;;;;;;19.60;11.73;;;5.40;1.00;;;;;;5059195;28;20057;-86
2023/03/09 12:02:55;;;;;;;17.05;10.88;;;5.30;99.90;;;;;;5034758;28;20490;-85
2023/03/09 12:05:23;;;;;;;18.80;11.35;;;5.20;99.90;;;;;;5049367;28;20079;-86
2023/03/09 12:08:21;;;;;;;17.67;11.13;;;5.20;99.90;;;;;;5057988;28;20048;-86
2023/03/09 12:10:54;;;;;;;19.08;12.15;;;5.20;99.90;;;;;;5066509;28;20393;-85
2023/03/09 12:13:34;;;;;;;21.30;12.63;;;5.10;99.90;;;;;;5037825;28;20080;-85
2023/03/09 12:16:02;;;;;;;20.42;11.55;;;5.10;99.90;;;;;;5032164;28;20051;-86
2023/03/09 12:18:35;;;;;;;17.50;11.20;;;5.10;1.00;;;;;;5052880;28;20040;-87
2023/03/09 12:21:11;;;;;;;16.75;10.65;;;5.10;99.90;;;;;;5050508;28;20190;-87
2023/03/09 12:23:36;;;;;;;17.33;11.25;;;5.10;99.90;;;;;;5054409;28;20056;-87
2023/03/09 12:26:14;;;;;;;17.10;11.27;;;5.10;99.90;;;;;;5051951;28;20531;-87
2023/03/09 12:28:40;;;;;;;18.73;11.65;;;5.20;99.90;;;;;;5055517;28;20052;-85
2023/03/09 12:31:31;;;;;;;17.25;11.10;;;5.10;99.90;;;;;;5039951;28;20078;-85
2023/03/09 12:33:57;;;;;;;18.55;11.43;;;5.20;99.90;;;;;;5052765;28;20040;-86
2023/03/09 12:36:32;;;;;;;18.27;11.43;;;5.20;99.90;;;;;;5052753;28;20045;-87
2023/03/09 12:39:26;;;;;;;18.58;12.02;;;5.30;99.90;;;;;;5051291;28;20125;-87
2023/03/09 12:42:08;;;;;;;17.75;11.77;;;5.40;99.90;;;;;;5038317;28;20074;-87
2023/03/09 12:44:45;;;;;;;17.77;11.27;;;5.50;99.90;;;;;;5038273;28;20056;-86
2023/03/09 12:47:37;;;;;;;20.33;12.43;;;5.50;99.90;;;;;;5035654;28;20048;-85
2023/03/09 12:50:24;;;;;;;18.73;12.00;;;5.50;99.90;;;;;;5059110;28;20149;-86